Carroll, OH

7:33 AM EDT on September 17, 2014 (GMT -0400)
Fairfield County | Change Station
CLOSE
Current Station
Airport
Location: Lancaster,
Elevation: 869 ft
Nearby Weather Stations
Active Advisory: Special Statement Active Notice: Record Report

Elev 869 ft 39.76 °N, 82.66 °W | Updated 40 minutes ago

Overcast
Overcast
50 °F
Feels Like 50 °F
N
0
Wind Variable Wind from North

Today
High -- | Low -- °F
--% Chance of Precip.
Yesterday
High -- | Low -- °F
Precip. -- in
7:13 AM 7:36 PM
Last Quarter, 37% visible
Pressure 30.07 in
Visibility 3.0 miles
Clouds Overcast 4300 ft
Dew Point 48 °F
Humidity 93%
Rainfall 0.00 in
Snow Depth Not available.
UV 0 out of 12
Pollen 4.60 out of 12
Air Quality Not available.
Flu Activity Not available.
METAR KLHQ 171053Z AUTO 00000KT 3SM BR OVC043 10/09 A3007 RMK AO2 SLP182 T01000089

More Conditions Fewer Conditions

Pressure 30.07 in
Visibility 3.0 miles
Clouds Overcast 4300 ft
Dew Point 48 °F
Humidity 93%
Rainfall 0.00 in
Snow Depth Not available.
UV 0 out of 12
Pollen 4.60 out of 12
Air Quality Not available.
Flu Activity Not available.
METAR KLHQ 171053Z AUTO 00000KT 3SM BR OVC043 10/09 A3007 RMK AO2 SLP182 T01000089

More Conditions Fewer Conditions

10-Day Weather Forecast

Almanac

Astronomy

Sep. 17, 2014 Rise Set
Actual Time 7:13 AM EDT 7:36 PM EDT
Civil Twilight 6:46 AM EDT 8:03 PM EDT
Nautical Twilight 6:14 AM EDT 8:34 PM EDT
Astronomical Twilight 5:42 AM EDT 9:07 PM EDT
Moon 1:13 AM EDT 3:44 PM EDT
Length of Visible Light 13h 16m
Length of Day
12h 22m
Tomorrow will be 2m 35s shorter.
Last Quarter, 37% of the Moon is Illuminated
Today
Last Quarter
Sep 24
New
Oct 1
First Quarter
Oct 8
Full
Oct 15
Last Quarter

Today's Extremes

State Highs State Lows

Community

WunderPhotos

Upload Photos

1,754,003 photos uploaded!

Nearby

Air Quality

  Air Quality AQ Index Pollutant
Yesterday Good
PM2.5
Wednesday Good
PM2.5
Wednesday Good
OZONE
Thursday Good
OZONE
Thursday Good
PM2.5
Friday Good
OZONE
Friday Good
PM2.5
Saturday Moderate
OZONE
Saturday Moderate
PM2.5
Sunday Good
OZONE
Sunday Good
PM2.5

Snow Depth

Station Depth Elevation
No new snow has been reported.

Earthquake Activity

City Distance Mag. Time & Date
No recent earthquake activity has been reported nearby.
Minimum magnitude displayed is 2.5.

Coastal Water Temperatures

Place Temperature
No Stations Reporting

Nearby Weather Stations